Time;durP1;ratioP1;P1;durP2;ratioP2;P2;SDS_P1;SDS_P2;PMS_P1;PMS_P2;Temp;Humidity;BMP_temperature;BMP_pressure;BME280_temperature;BME280_humidity;BME280_pressure;Samples;Min_cycle;Max_cycle;Signal;HPM_P1;HPM_P2
2023/11/18 00:00:35;;;;;;;24.00;15.25;;;6.50;99.90;;;;;;5022291;28;20054;-89
2023/11/18 00:03:01;;;;;;;23.70;14.15;;;6.50;99.90;;;;;;5030108;28;20022;-89
2023/11/18 00:05:27;;;;;;;22.00;13.88;;;6.50;99.90;;;;;;5039008;28;20057;-91
2023/11/18 00:07:52;;;;;;;22.02;14.25;;;6.50;99.90;;;;;;5036725;28;20057;-90
2023/11/18 00:10:18;;;;;;;22.00;13.38;;;6.50;99.90;;;;;;5013862;28;20672;-89
2023/11/18 00:12:44;;;;;;;24.25;14.25;;;6.50;99.90;;;;;;5026895;28;20021;-90
2023/11/18 00:15:11;;;;;;;22.73;14.80;;;6.40;99.90;;;;;;5024069;28;20025;-91
2023/11/18 00:17:37;;;;;;;22.38;13.98;;;6.40;99.90;;;;;;5021493;28;20100;-90
2023/11/18 00:20:09;;;;;;;24.88;16.52;;;6.40;99.90;;;;;;5019675;28;20049;-89
2023/11/18 00:22:38;;;;;;;23.08;16.52;;;6.40;99.90;;;;;;5020938;28;20448;-91
2023/11/18 00:25:11;;;;;;;23.02;14.40;;;6.40;99.90;;;;;;5020598;28;20038;-90
2023/11/18 00:27:37;;;;;;;25.70;15.43;;;6.50;99.90;;;;;;5023966;28;20105;-90
2023/11/18 00:30:08;;;;;;;22.27;14.65;;;6.40;99.90;;;;;;5040857;28;20029;-89
2023/11/18 00:32:35;;;;;;;24.23;15.00;;;6.50;99.90;;;;;;5020658;28;20033;-91
2023/11/18 00:35:01;;;;;;;24.60;14.43;;;6.40;99.90;;;;;;5037645;28;20025;-90
2023/11/18 00:37:26;;;;;;;23.90;13.90;;;6.50;99.90;;;;;;5023695;28;20048;-90
2023/11/18 00:39:53;;;;;;;22.88;14.57;;;6.50;99.90;;;;;;5040770;28;20454;-89
2023/11/18 00:42:19;;;;;;;27.85;14.93;;;6.50;99.90;;;;;;5040339;28;20030;-88
2023/11/18 00:44:44;;;;;;;24.98;14.30;;;6.50;99.90;;;;;;5021839;28;20477;-89
2023/11/18 00:47:10;;;;;;;21.23;13.93;;;6.50;99.90;;;;;;5022501;28;20407;-92
2023/11/18 00:49:36;;;;;;;22.50;13.65;;;6.50;99.90;;;;;;5041541;28;20625;-91
2023/11/18 00:52:04;;;;;;;22.80;12.80;;;6.50;99.90;;;;;;5023017;28;20025;-90
2023/11/18 00:54:30;;;;;;;20.92;13.27;;;6.50;99.90;;;;;;5011931;28;20034;-90
2023/11/18 00:56:56;;;;;;;21.58;13.57;;;6.40;99.90;;;;;;5011675;28;20037;-93
2023/11/18 00:59:21;;;;;;;21.27;13.25;;;6.40;99.90;;;;;;5020220;28;20116;-91
2023/11/18 01:01:48;;;;;;;23.10;14.90;;;6.40;99.90;;;;;;5025679;28;20040;-90
2023/11/18 01:04:14;;;;;;;21.85;14.40;;;6.40;99.90;;;;;;5013628;28;20053;-90
2023/11/18 01:06:42;;;;;;;19.38;13.38;;;6.40;99.90;;;;;;5017906;28;20044;-91
2023/11/18 01:09:09;;;;;;;21.63;13.10;;;6.40;99.90;;;;;;5039239;28;20020;-89
2023/11/18 01:11:35;;;;;;;20.40;12.60;;;6.40;99.90;;;;;;5039812;28;20075;-89
2023/11/18 01:14:02;;;;;;;20.90;13.23;;;6.40;99.90;;;;;;5039551;28;20483;-90
2023/11/18 01:16:28;;;;;;;19.20;12.52;;;6.30;99.90;;;;;;5023378;28;20029;-90
2023/11/18 01:18:54;;;;;;;19.10;12.05;;;6.30;99.90;;;;;;5021336;28;20029;-90
2023/11/18 01:21:21;;;;;;;17.95;13.00;;;6.30;99.90;;;;;;5022782;28;20081;-90
2023/11/18 01:23:48;;;;;;;19.08;12.18;;;6.30;99.90;;;;;;5040150;28;20021;-90
2023/11/18 01:26:15;;;;;;;19.63;12.57;;;6.30;99.90;;;;;;5022306;28;20022;-91
2023/11/18 01:28:45;;;;;;;22.05;14.50;;;6.20;99.90;;;;;;5039274;28;20022;-90
2023/11/18 01:31:11;;;;;;;20.30;12.30;;;6.20;99.90;;;;;;5021562;28;20025;-90
2023/11/18 01:33:39;;;;;;;21.55;12.77;;;6.20;99.90;;;;;;5039938;28;20018;-92
2023/11/18 01:36:09;;;;;;;18.80;12.75;;;6.20;99.90;;;;;;5039610;28;20033;-89
2023/11/18 01:38:37;;;;;;;21.05;12.30;;;6.20;99.90;;;;;;5039745;28;20029;-91
2023/11/18 01:41:04;;;;;;;21.83;12.60;;;6.20;99.90;;;;;;5040206;28;20053;-89
2023/11/18 01:43:31;;;;;;;20.73;13.57;;;6.20;99.90;;;;;;5040883;28;20089;-91
2023/11/18 01:46:04;;;;;;;17.83;13.15;;;6.20;99.90;;;;;;5040053;28;20685;-92
2023/11/18 01:48:33;;;;;;;18.48;12.82;;;6.20;99.90;;;;;;5022106;28;20087;-90
2023/11/18 01:51:00;;;;;;;20.38;11.43;;;6.20;99.90;;;;;;5039560;28;20082;-92
2023/11/18 01:53:28;;;;;;;17.92;12.27;;;6.10;99.90;;;;;;5010750;28;20503;-90
2023/11/18 01:55:54;;;;;;;16.73;11.60;;;6.10;99.90;;;;;;5001906;28;20076;-91
2023/11/18 01:58:22;;;;;;;20.23;11.95;;;6.10;99.90;;;;;;5021975;28;20053;-91
2023/11/18 02:00:51;;;;;;;;;;;6.10;99.90;;;;;;5022559;28;20022;-89
2023/11/18 02:03:17;;;;;;;21.67;12.25;;;6.10;99.90;;;;;;5039535;28;19909;-90
2023/11/18 02:05:43;;;;;;;18.67;12.57;;;6.10;99.90;;;;;;5022556;28;20026;-91
2023/11/18 02:08:09;;;;;;;22.65;14.50;;;6.10;99.90;;;;;;5040615;28;20049;-89
2023/11/18 02:10:47;;;;;;;20.20;12.63;;;6.10;99.90;;;;;;5036195;28;20439;-89
2023/11/18 02:13:36;;;;;;;19.13;13.88;;;6.10;99.90;;;;;;5001755;28;20369;-91
2023/11/18 02:16:07;;;;;;;21.30;14.40;;;6.10;99.90;;;;;;5002026;28;20396;-90
2023/11/18 02:18:33;;;;;;;19.35;13.23;;;6.10;99.90;;;;;;5001942;28;20026;-92
2023/11/18 02:21:00;;;;;;;22.73;14.07;;;6.10;99.90;;;;;;5002520;28;20028;-90
2023/11/18 02:23:26;;;;;;;25.33;14.90;;;6.10;99.90;;;;;;5002189;28;20030;-91
2023/11/18 02:25:52;;;;;;;24.88;15.07;;;6.10;99.90;;;;;;5002690;28;20022;-91
2023/11/18 02:28:19;;;;;;;22.23;14.27;;;6.20;99.90;;;;;;5001505;28;20030;-89
2023/11/18 02:30:45;;;;;;;21.67;13.75;;;6.20;99.90;;;;;;5001624;28;20580;-91
2023/11/18 02:33:40;;;;;;;27.20;14.23;;;6.20;99.90;;;;;;5020427;28;20105;-89
2023/11/18 02:36:36;;;;;;;25.10;14.15;;;6.20;99.90;;;;;;5020447;28;20029;-90
2023/11/18 02:39:08;;;;;;;23.58;13.25;;;6.20;99.90;;;;;;5039987;28;20022;-91
2023/11/18 02:41:35;;;;;;;23.75;13.18;;;6.20;99.90;;;;;;5026959;28;20029;-90
2023/11/18 02:44:08;;;;;;;24.60;14.63;;;6.20;99.90;;;;;;5002493;28;20036;-89
2023/11/18 02:46:35;;;;;;;19.20;13.02;;;6.20;99.90;;;;;;5020253;28;20042;-90
2023/11/18 02:49:02;;;;;;;21.38;14.73;;;6.20;99.90;;;;;;5016808;28;20026;-90
2023/11/18 02:51:29;;;;;;;24.98;13.93;;;6.20;99.90;;;;;;5034603;28;20439;-89
2023/11/18 02:53:55;;;;;;;21.70;15.82;;;6.20;99.90;;;;;;5018787;28;20061;-91
2023/11/18 02:56:21;;;;;;;21.95;13.95;;;6.20;99.90;;;;;;5019455;28;20037;-91
2023/11/18 02:58:47;;;;;;;24.70;14.57;;;6.20;99.90;;;;;;5019554;28;20480;-89
2023/11/18 03:01:13;;;;;;;22.45;14.80;;;6.20;99.90;;;;;;5028024;28;20048;-91
2023/11/18 03:03:38;;;;;;;24.52;14.73;;;6.20;99.90;;;;;;5026749;28;20034;-91
2023/11/18 03:06:06;;;;;;;23.45;13.68;;;6.20;99.90;;;;;;5022438;28;20036;-93
2023/11/18 03:08:31;;;;;;;22.25;13.93;;;6.20;99.90;;;;;;5026877;28;20021;-90
2023/11/18 03:10:58;;;;;;;23.50;14.80;;;6.20;99.90;;;;;;5043421;28;20032;-91
2023/11/18 03:13:24;;;;;;;19.90;12.90;;;6.20;99.90;;;;;;5042800;28;20036;-90
2023/11/18 03:15:50;;;;;;;24.33;14.80;;;6.30;99.90;;;;;;5025595;28;20094;-90
2023/11/18 03:18:16;;;;;;;26.58;15.25;;;6.20;99.90;;;;;;5025288;28;20088;-91
2023/11/18 03:20:42;;;;;;;25.25;15.27;;;6.20;99.90;;;;;;5042602;28;20045;-89
2023/11/18 03:23:09;;;;;;;23.35;15.20;;;6.30;99.90;;;;;;5042831;28;20022;-92
2023/11/18 03:25:34;;;;;;;22.90;16.13;;;6.30;99.90;;;;;;5042429;28;20092;-91
2023/11/18 03:28:01;;;;;;;25.58;16.00;;;6.20;99.90;;;;;;5042466;28;20032;-89
2023/11/18 03:30:28;;;;;;;23.55;14.30;;;6.20;99.90;;;;;;5042213;28;20371;-91
2023/11/18 03:32:55;;;;;;;27.73;15.20;;;6.20;99.90;;;;;;5042021;28;20022;-91
2023/11/18 03:35:20;;;;;;;29.13;16.17;;;6.20;99.90;;;;;;5024589;28;20088;-91
2023/11/18 03:37:46;;;;;;;26.52;16.15;;;6.20;99.90;;;;;;5024823;28;20056;-90
2023/11/18 03:40:14;;;;;;;26.48;16.02;;;6.20;99.90;;;;;;5023620;28;20543;-90
2023/11/18 03:42:43;;;;;;;28.40;14.82;;;6.20;99.90;;;;;;5023162;28;20472;-91
2023/11/18 03:45:09;;;;;;;26.10;16.98;;;6.20;99.90;;;;;;5041725;28;20021;-90
2023/11/18 03:47:35;;;;;;;25.00;14.00;;;6.20;99.90;;;;;;5024142;28;20026;-91
2023/11/18 03:50:01;;;;;;;23.92;13.60;;;6.20;99.90;;;;;;5041095;28;20032;-91
2023/11/18 03:52:27;;;;;;;23.67;16.63;;;6.20;99.90;;;;;;5041834;28;20467;-91
2023/11/18 03:54:55;;;;;;;28.85;16.75;;;6.20;99.90;;;;;;5024693;28;20088;-91
2023/11/18 03:57:21;;;;;;;28.50;16.25;;;6.20;99.90;;;;;;5030999;28;20037;-91
2023/11/18 03:59:50;;;;;;;23.23;15.35;;;6.20;99.90;;;;;;5023021;28;20034;-91
2023/11/18 04:02:16;;;;;;;26.80;16.10;;;6.20;99.90;;;;;;5023059;28;20021;-91
2023/11/18 04:04:41;;;;;;;24.17;14.88;;;6.20;99.90;;;;;;5024001;28;20052;-91
2023/11/18 04:07:07;;;;;;;26.90;15.95;;;6.10;99.90;;;;;;5024196;28;20365;-90
2023/11/18 04:09:33;;;;;;;29.67;15.82;;;6.10;99.90;;;;;;5041692;28;20022;-91
2023/11/18 04:11:59;;;;;;;26.67;15.82;;;6.00;99.90;;;;;;5041586;28;20026;-89
2023/11/18 04:14:25;;;;;;;28.45;14.95;;;6.00;99.90;;;;;;5024433;28;20052;-90
2023/11/18 04:16:53;;;;;;;28.83;16.42;;;5.90;99.90;;;;;;5024785;28;20055;-90
2023/11/18 04:19:19;;;;;;;30.10;17.15;;;5.80;99.90;;;;;;5024036;28;20045;-91
2023/11/18 04:21:48;;;;;;;27.08;15.38;;;5.80;99.90;;;;;;5023810;28;20430;-91
2023/11/18 04:24:14;;;;;;;30.02;16.95;;;5.80;99.90;;;;;;5023960;28;20061;-91
2023/11/18 04:26:40;;;;;;;27.60;15.88;;;5.80;99.90;;;;;;5023913;28;20025;-91
2023/11/18 04:29:06;;;;;;;31.02;17.33;;;5.80;99.90;;;;;;5024169;28;20021;-92
2023/11/18 04:31:32;;;;;;;30.90;16.90;;;5.80;99.90;;;;;;5023599;28;20022;-90
2023/11/18 04:33:58;;;;;;;34.83;19.15;;;5.70;99.90;;;;;;5041548;28;20045;-92
2023/11/18 04:36:23;;;;;;;30.77;18.70;;;5.70;99.90;;;;;;5024082;28;20025;-90
2023/11/18 04:38:49;;;;;;;28.77;14.75;;;5.70;99.90;;;;;;5041112;28;20160;-91
2023/11/18 04:41:16;;;;;;;28.98;18.45;;;5.70;99.90;;;;;;5022594;28;20052;-91
2023/11/18 04:43:42;;;;;;;27.10;16.85;;;5.70;99.90;;;;;;5041480;28;20025;-90
2023/11/18 04:46:08;;;;;;;30.50;16.52;;;5.70;99.90;;;;;;5023435;28;20100;-91
2023/11/18 04:48:34;;;;;;;28.90;16.60;;;5.70;99.90;;;;;;5023350;28;20097;-89
2023/11/18 04:51:00;;;;;;;29.50;16.45;;;5.70;99.90;;;;;;5022826;28;20551;-90
2023/11/18 04:53:26;;;;;;;33.80;17.23;;;5.70;99.90;;;;;;5041236;28;20029;-89
2023/11/18 04:55:52;;;;;;;32.78;18.55;;;5.80;99.90;;;;;;5040621;28;20472;-91
2023/11/18 04:58:18;;;;;;;33.17;17.42;;;5.80;99.90;;;;;;5024105;28;20041;-90
2023/11/18 05:00:44;;;;;;;34.65;18.42;;;5.80;99.90;;;;;;5041015;28;20476;-90
2023/11/18 05:03:10;;;;;;;33.78;18.73;;;5.80;99.90;;;;;;5041088;28;20025;-91
2023/11/18 05:05:39;;;;;;;31.58;17.05;;;5.90;99.90;;;;;;5033212;28;20159;-90
2023/11/18 05:08:18;;;;;;;36.63;17.95;;;5.80;99.90;;;;;;5042355;28;20022;-90
2023/11/18 05:10:50;;;;;;;30.58;18.05;;;5.90;99.90;;;;;;5041335;28;20022;-91
2023/11/18 05:13:16;;;;;;;32.30;18.25;;;5.90;99.90;;;;;;5022149;28;20399;-89
2023/11/18 05:15:46;;;;;;;28.10;16.25;;;5.80;99.90;;;;;;5040073;28;20033;-91
2023/11/18 05:18:16;;;;;;;26.65;16.45;;;5.70;99.90;;;;;;5039923;28;20488;-90
2023/11/18 05:20:42;;;;;;;26.67;15.95;;;5.70;99.90;;;;;;5039860;28;20087;-91
2023/11/18 05:23:11;;;;;;;26.95;15.43;;;5.70;99.90;;;;;;5040787;28;20104;-90
2023/11/18 05:25:40;;;;;;;28.25;17.02;;;5.60;99.90;;;;;;5041053;28;20377;-90
2023/11/18 05:28:08;;;;;;;26.83;15.05;;;5.60;99.90;;;;;;5022883;28;20361;-91
2023/11/18 05:30:35;;;;;;;25.15;17.15;;;5.60;99.90;;;;;;5040383;28;20036;-90
2023/11/18 05:33:05;;;;;;;29.58;15.10;;;5.60;99.90;;;;;;5022988;28;20027;-90
2023/11/18 05:35:31;;;;;;;26.65;14.60;;;5.60;99.90;;;;;;5041319;28;20025;-89
2023/11/18 05:37:57;;;;;;;24.92;15.63;;;5.60;99.90;;;;;;5022365;28;20029;-89
2023/11/18 05:40:22;;;;;;;27.05;15.60;;;5.50;99.90;;;;;;5039909;28;20075;-89
2023/11/18 05:42:51;;;;;;;29.10;15.68;;;5.50;99.90;;;;;;5022761;28;20032;-91
2023/11/18 05:45:27;;;;;;;25.42;15.48;;;5.50;99.90;;;;;;5023345;28;20048;-91
2023/11/18 05:47:56;;;;;;;30.48;16.15;;;5.40;99.90;;;;;;5040527;28;20086;-91
2023/11/18 05:50:24;;;;;;;29.77;15.88;;;5.40;99.90;;;;;;5039345;28;20448;-90
2023/11/18 05:52:50;;;;;;;32.45;16.73;;;5.40;99.90;;;;;;5039488;28;20021;-90
2023/11/18 05:55:16;;;;;;;34.22;22.13;;;5.40;99.90;;;;;;5021531;28;20028;-90
2023/11/18 05:57:44;;;;;;;27.23;16.45;;;5.40;99.90;;;;;;5038833;28;20081;-92
2023/11/18 06:00:15;;;;;;;27.95;16.52;;;5.40;99.90;;;;;;5039826;28;20028;-91
2023/11/18 06:02:41;;;;;;;28.48;15.27;;;5.40;99.90;;;;;;5022864;28;20458;-88
2023/11/18 06:05:08;;;;;;;28.48;16.58;;;5.40;99.90;;;;;;5022863;28;20021;-91
2023/11/18 06:07:35;;;;;;;26.73;15.57;;;5.50;99.90;;;;;;5027914;28;20091;-91
2023/11/18 06:10:05;;;;;;;27.00;14.82;;;5.40;99.90;;;;;;5019810;28;20248;-91
2023/11/18 06:12:31;;;;;;;25.20;15.05;;;5.40;99.90;;;;;;5032196;28;20033;-89
2023/11/18 06:14:57;;;;;;;24.48;15.52;;;5.40;99.90;;;;;;5031983;28;20022;-91
2023/11/18 06:17:23;;;;;;;28.40;16.10;;;5.40;99.90;;;;;;5022856;28;20025;-91
2023/11/18 06:19:49;;;;;;;30.85;16.35;;;5.40;99.90;;;;;;5021798;28;20553;-91
2023/11/18 06:22:15;;;;;;;29.38;16.15;;;5.30;99.90;;;;;;5039732;28;20029;-91
2023/11/18 06:24:41;;;;;;;31.67;17.75;;;5.30;99.90;;;;;;5022323;28;20368;-90
2023/11/18 06:27:10;;;;;;;34.65;17.65;;;5.30;99.90;;;;;;5021792;28;20057;-89
2023/11/18 06:29:35;;;;;;;33.08;17.27;;;5.30;99.90;;;;;;5024076;28;20460;-89
2023/11/18 06:32:01;;;;;;;36.83;21.73;;;5.30;99.90;;;;;;5026233;28;20033;-89
2023/11/18 06:34:27;;;;;;;33.42;18.83;;;5.30;99.90;;;;;;5042762;28;20030;-91
2023/11/18 06:36:53;;;;;;;34.00;18.55;;;5.30;99.90;;;;;;5041106;28;20056;-91
2023/11/18 06:39:29;;;;;;;36.00;18.60;;;5.30;99.90;;;;;;5041141;28;20026;-91
2023/11/18 06:41:56;;;;;;;38.33;19.98;;;5.30;99.90;;;;;;5023921;28;20407;-90
2023/11/18 06:44:24;;;;;;;30.15;16.75;;;5.40;99.90;;;;;;5027368;28;20029;-92
2023/11/18 06:46:50;;;;;;;32.58;16.85;;;5.30;99.90;;;;;;5026430;28;20117;-91
2023/11/18 06:49:17;;;;;;;31.48;17.35;;;5.30;99.90;;;;;;5043549;28;20105;-91
2023/11/18 06:51:43;;;;;;;26.27;14.15;;;5.30;99.90;;;;;;5026578;28;20030;-89
2023/11/18 06:54:09;;;;;;;29.05;16.23;;;5.30;99.90;;;;;;5043683;28;20025;-90
2023/11/18 06:56:37;;;;;;;28.05;14.32;;;5.30;99.90;;;;;;5024574;28;20030;-90
2023/11/18 06:59:07;;;;;;;26.63;14.10;;;5.20;99.90;;;;;;5042053;28;20522;-88
2023/11/18 07:01:36;;;;;;;31.27;15.98;;;5.20;99.90;;;;;;5042455;28;20043;-88
2023/11/18 07:04:02;;;;;;;29.33;16.38;;;5.20;99.90;;;;;;5035382;28;20052;-90
2023/11/18 07:06:28;;;;;;;30.25;15.48;;;5.20;99.90;;;;;;5029523;28;20033;-92
2023/11/18 07:08:59;;;;;;;30.25;16.08;;;5.20;99.90;;;;;;5021257;28;20021;-91
2023/11/18 07:11:24;;;;;;;27.75;15.50;;;5.30;99.90;;;;;;5031795;28;20026;-93
2023/11/18 07:13:56;;;;;;;31.17;16.83;;;5.20;99.90;;;;;;5023300;28;20858;-90
2023/11/18 07:16:22;;;;;;;29.38;14.88;;;5.20;99.90;;;;;;5022063;28;20040;-90
2023/11/18 07:18:48;;;;;;;24.23;14.45;;;5.20;99.90;;;;;;5017068;28;20073;-92
2023/11/18 07:21:14;;;;;;;27.50;14.95;;;5.20;99.90;;;;;;5032325;28;20029;-91
2023/11/18 07:23:39;;;;;;;26.90;15.40;;;5.20;99.90;;;;;;5032118;28;20112;-92
2023/11/18 07:26:05;;;;;;;27.10;15.77;;;5.20;99.90;;;;;;5040377;28;20048;-92
2023/11/18 07:28:32;;;;;;;27.23;15.32;;;5.30;99.90;;;;;;5015846;28;20026;-92
2023/11/18 07:30:59;;;;;;;25.02;14.05;;;5.30;99.90;;;;;;5020720;28;20025;-90
2023/11/18 07:33:25;;;;;;;25.60;15.80;;;5.20;99.90;;;;;;5024254;28;20029;-92
2023/11/18 07:35:50;;;;;;;30.92;15.85;;;5.30;99.90;;;;;;5029463;28;20029;-92
2023/11/18 07:38:19;;;;;;;37.03;21.25;;;5.40;99.90;;;;;;5024988;28;20030;-90
2023/11/18 07:40:45;;;;;;;27.38;16.33;;;5.40;99.90;;;;;;5010324;28;20025;-92
2023/11/18 07:43:17;;;;;;;26.13;14.90;;;5.40;99.90;;;;;;5030428;28;20033;-92
2023/11/18 07:45:43;;;;;;;27.45;13.55;;;5.40;99.90;;;;;;5040679;28;20033;-92
2023/11/18 07:48:17;;;;;;;24.33;13.40;;;5.40;99.90;;;;;;5040374;28;20029;-91
2023/11/18 07:50:47;;;;;;;22.73;12.20;;;5.40;99.90;;;;;;5008764;28;20018;-91
2023/11/18 07:53:13;;;;;;;26.45;13.68;;;5.40;99.90;;;;;;5028109;28;20018;-91
2023/11/18 07:55:42;;;;;;;37.65;24.50;;;5.40;99.90;;;;;;5039155;28;20029;-91
2023/11/18 07:58:10;;;;;;;30.70;19.45;;;5.40;99.90;;;;;;5041825;28;20022;-90
2023/11/18 08:00:43;;;;;;;21.13;11.02;;;5.40;99.90;;;;;;5012419;28;20018;-89
2023/11/18 08:03:13;;;;;;;20.65;10.98;;;5.30;99.90;;;;;;5019602;28;20021;-90
2023/11/18 08:05:43;;;;;;;17.33;10.18;;;5.30;99.90;;;;;;5010625;28;20029;-90
2023/11/18 08:08:10;;;;;;;17.40;10.45;;;5.40;99.90;;;;;;5038336;28;20365;-91
2023/11/18 08:10:39;;;;;;;16.55;9.45;;;5.50;99.90;;;;;;5030535;28;20024;-90
2023/11/18 08:13:08;;;;;;;15.27;9.90;;;5.50;99.90;;;;;;5022439;28;20034;-92
2023/11/18 08:15:38;;;;;;;17.38;9.68;;;5.50;99.90;;;;;;5028374;28;20081;-89
2023/11/18 08:18:03;;;;;;;15.45;9.82;;;5.50;99.90;;;;;;5002559;28;20064;-89
2023/11/18 08:20:29;;;;;;;19.33;13.13;;;5.50;99.90;;;;;;5036258;28;20026;-91
2023/11/18 08:22:56;;;;;;;16.08;11.23;;;5.50;99.90;;;;;;5026212;28;20044;-91
2023/11/18 08:25:22;;;;;;;13.45;9.48;;;5.60;99.90;;;;;;5035713;28;20058;-91
2023/11/18 08:27:47;;;;;;;14.30;10.52;;;5.60;99.90;;;;;;5039115;28;20032;-91
2023/11/18 08:30:14;;;;;;;16.33;11.98;;;5.70;99.90;;;;;;5019825;28;20025;-92
2023/11/18 08:32:44;;;;;;;11.18;7.22;;;5.70;99.90;;;;;;5034264;28;20022;-89
2023/11/18 08:35:14;;;;;;;12.80;7.88;;;5.60;99.90;;;;;;5009606;28;20037;-90
2023/11/18 08:37:40;;;;;;;8.98;6.68;;;5.70;99.90;;;;;;5033773;28;20029;-90
2023/11/18 08:40:20;;;;;;;12.10;8.52;;;5.70;99.90;;;;;;5026742;28;20041;-89
2023/11/18 08:42:49;;;;;;;10.82;6.82;;;5.80;99.90;;;;;;5039475;28;20018;-91
2023/11/18 08:45:29;;;;;;;10.48;7.80;;;5.90;99.90;;;;;;5039194;28;20025;-90
2023/11/18 08:47:58;;;;;;;13.23;9.07;;;6.00;99.90;;;;;;5038607;28;20025;-91
2023/11/18 08:50:24;;;;;;;13.80;9.82;;;6.00;99.90;;;;;;5021242;28;20045;-90
2023/11/18 08:52:57;;;;;;;14.95;9.98;;;6.10;99.90;;;;;;5037419;28;20021;-94
2023/11/18 08:55:38;;;;;;;17.23;10.23;;;6.20;99.90;;;;;;5039345;28;20049;-94
2023/11/18 08:58:19;;;;;;;19.73;11.18;;;6.20;99.90;;;;;;5029227;28;20045;-93
2023/11/18 09:03:27;;;;;;;16.75;9.95;;;6.30;99.90;;;;;;5039648;28;19959;-91
2023/11/18 09:06:03;;;;;;;15.60;9.65;;;6.30;99.90;;;;;;5030527;28;20025;-92
2023/11/18 09:08:34;;;;;;;16.80;9.73;;;6.40;99.90;;;;;;5040547;28;20024;-93
2023/11/18 09:11:11;;;;;;;12.85;9.27;;;6.50;99.90;;;;;;5024658;28;20028;-93
2023/11/18 09:13:38;;;;;;;15.75;9.40;;;6.60;99.90;;;;;;5034009;28;20022;-93
2023/11/18 09:16:09;;;;;;;15.02;11.43;;;6.60;99.90;;;;;;5037980;28;20046;-87
2023/11/18 09:18:39;;;;;;;12.93;7.90;;;6.80;99.90;;;;;;5038446;28;20029;-92
2023/11/18 09:21:14;;;;;;;9.25;6.35;;;6.80;99.90;;;;;;5014284;28;20029;-93
2023/11/18 09:23:43;;;;;;;10.88;8.05;;;6.80;99.90;;;;;;5000336;28;20026;-91
2023/11/18 09:26:10;;;;;;;9.50;6.53;;;6.90;99.90;;;;;;5032956;28;20018;-91
2023/11/18 09:28:36;;;;;;;9.82;7.07;;;6.90;99.90;;;;;;5029869;28;20116;-91
2023/11/18 09:31:03;;;;;;;10.05;6.63;;;6.90;99.90;;;;;;5037239;28;20021;-92
2023/11/18 09:33:34;;;;;;;11.20;7.70;;;6.90;99.90;;;;;;5029011;28;20029;-90
2023/11/18 09:36:00;;;;;;;9.82;7.40;;;7.00;99.90;;;;;;5011037;28;20030;-90
2023/11/18 09:38:30;;;;;;;11.75;7.70;;;7.10;99.90;;;;;;5016606;28;20026;-92
2023/11/18 09:41:02;;;;;;;12.88;7.80;;;7.10;99.90;;;;;;5032603;28;20025;-90
2023/11/18 09:43:32;;;;;;;10.82;7.10;;;6.90;99.90;;;;;;5036621;28;20357;-91
2023/11/18 09:46:12;;;;;;;11.93;8.68;;;6.90;99.90;;;;;;5030264;28;20026;-91
2023/11/18 09:48:45;;;;;;;11.35;6.75;;;7.00;99.90;;;;;;5026365;28;20018;-90
2023/11/18 09:51:20;;;;;;;10.25;7.03;;;7.10;99.90;;;;;;5037272;28;20029;-91
2023/11/18 09:54:00;;;;;;;9.63;6.80;;;7.20;99.90;;;;;;5038963;28;20028;-90
2023/11/18 09:56:57;;;;;;;8.93;6.00;;;7.30;99.90;;;;;;5011433;28;20049;-90
2023/11/18 09:59:34;;;;;;;10.70;6.93;;;7.30;99.90;;;;;;5027919;28;20092;-89
2023/11/18 10:02:04;;;;;;;10.40;6.13;;;7.40;99.90;;;;;;5030128;28;20029;-93
2023/11/18 10:04:31;;;;;;;8.70;6.10;;;7.30;99.90;;;;;;5026131;28;20033;-91
2023/11/18 10:06:57;;;;;;;8.90;6.38;;;7.40;99.90;;;;;;5034277;28;20032;-93
2023/11/18 10:10:01;;;;;;;8.20;5.97;;;7.40;99.90;;;;;;5029233;28;20101;-91
2023/11/18 10:12:23;;;;;;;9.10;6.75;;;7.50;99.90;;;;;;5026183;28;20034;-91
2023/11/18 10:14:52;;;;;;;6.60;5.88;;;7.50;99.90;;;;;;5039454;28;20013;-91
2023/11/18 10:17:21;;;;;;;10.30;7.25;;;7.50;99.90;;;;;;5024026;28;20060;-90
2023/11/18 10:19:57;;;;;;;9.70;7.32;;;7.50;99.90;;;;;;5035572;28;20512;-90
2023/11/18 10:22:27;;;;;;;9.20;6.72;;;7.50;99.90;;;;;;5031811;28;20060;-90
2023/11/18 10:25:00;;;;;;;8.98;6.65;;;7.60;99.90;;;;;;5024749;28;20033;-90
2023/11/18 10:27:31;;;;;;;8.85;6.45;;;7.60;99.90;;;;;;5038732;28;20542;-89
2023/11/18 10:29:57;;;;;;;11.68;8.07;;;7.70;99.90;;;;;;5037344;28;20026;-90
2023/11/18 10:32:27;;;;;;;8.82;5.97;;;7.80;99.90;;;;;;5042077;28;20065;-90
2023/11/18 10:34:57;;;;;;;5.63;4.05;;;7.80;99.90;;;;;;5042116;28;20021;-91
2023/11/18 10:37:23;;;;;;;5.07;4.25;;;7.80;99.90;;;;;;5042526;28;20034;-91
2023/11/18 10:39:52;;;;;;;9.30;5.93;;;7.90;99.90;;;;;;5024382;28;20036;-89
2023/11/18 10:42:18;;;;;;;7.93;5.30;;;7.80;99.90;;;;;;5032124;28;20045;-91
2023/11/18 10:44:57;;;;;;;5.50;4.43;;;7.80;99.90;;;;;;5036384;28;20034;-91
2023/11/18 10:47:26;;;;;;;4.60;3.92;;;7.60;99.90;;;;;;5032574;28;20064;-89
2023/11/18 10:49:53;;;;;;;6.22;4.03;;;7.60;99.90;;;;;;5024258;28;20028;-92
2023/11/18 10:52:20;;;;;;;9.60;5.93;;;7.70;99.90;;;;;;5039720;28;20013;-91
2023/11/18 10:54:56;;;;;;;12.90;7.68;;;7.70;99.90;;;;;;5018614;28;20029;-91
2023/11/18 10:57:25;;;;;;;6.35;4.45;;;7.70;99.90;;;;;;5012663;28;20060;-90
2023/11/18 11:00:12;;;;;;;5.95;5.30;;;7.70;99.90;;;;;;5035225;28;20029;-90
2023/11/18 11:02:41;;;;;;;22.55;17.17;;;7.70;99.90;;;;;;5035042;28;20077;-89
2023/11/18 11:05:19;;;;;;;11.57;9.80;;;7.70;99.90;;;;;;5041159;28;20033;-90
2023/11/18 11:07:45;;;;;;;8.05;4.53;;;7.80;99.90;;;;;;5040331;28;20029;-91
2023/11/18 11:10:13;;;;;;;5.90;4.13;;;7.70;99.90;;;;;;5040874;28;20044;-90
2023/11/18 11:12:54;;;;;;;7.72;4.53;;;7.70;99.90;;;;;;5034294;28;20017;-91
2023/11/18 11:15:31;;;;;;;7.55;5.03;;;7.80;99.90;;;;;;5041181;28;20484;-89
2023/11/18 11:18:15;;;;;;;5.68;3.75;;;7.80;99.90;;;;;;5032025;28;20028;-90
2023/11/18 11:20:51;;;;;;;5.32;4.53;;;7.80;99.90;;;;;;5026126;28;20022;-90
2023/11/18 11:23:39;;;;;;;6.88;4.60;;;7.80;99.90;;;;;;5040517;28;20030;-90
2023/11/18 11:26:13;;;;;;;5.63;4.68;;;7.80;99.90;;;;;;5015558;28;20131;-89
2023/11/18 11:29:17;;;;;;;6.22;4.60;;;7.70;99.90;;;;;;5029350;28;20018;-92
2023/11/18 11:31:49;;;;;;;6.68;4.63;;;7.80;99.90;;;;;;5004097;28;20029;-88
2023/11/18 11:34:20;;;;;;;9.32;7.03;;;7.80;99.90;;;;;;5038602;28;20033;-90
2023/11/18 11:36:52;;;;;;;9.52;5.78;;;7.70;99.90;;;;;;5024640;28;20029;-91
2023/11/18 11:39:25;;;;;;;6.75;6.10;;;7.70;99.90;;;;;;5023466;28;20450;-89
2023/11/18 11:41:54;;;;;;;8.45;6.57;;;7.80;99.90;;;;;;5041178;28;20029;-90
2023/11/18 11:44:20;;;;;;;6.95;5.35;;;7.80;99.90;;;;;;5038408;28;20049;-92
2023/11/18 11:46:52;;;;;;;8.20;6.88;;;7.80;99.90;;;;;;5034630;28;20025;-91
2023/11/18 11:49:27;;;;;;;8.35;6.13;;;7.80;99.90;;;;;;5035193;28;20782;-91
2023/11/18 11:52:03;;;;;;;7.05;6.32;;;7.80;99.90;;;;;;5041595;28;20475;-92
2023/11/18 11:54:38;;;;;;;11.02;7.55;;;7.90;99.90;;;;;;5031891;28;20492;-92
2023/11/18 11:57:06;;;;;;;9.95;7.68;;;7.90;99.90;;;;;;5036041;28;20049;-91
2023/11/18 12:00:14;;;;;;;7.63;6.40;;;7.90;99.90;;;;;;5017531;28;20038;-89
2023/11/18 12:02:32;;;;;;;10.05;6.18;;;7.90;99.90;;;;;;5018557;28;20042;-90
2023/11/18 12:04:58;;;;;;;8.57;5.82;;;7.90;99.90;;;;;;5003982;28;20551;-91
2023/11/18 12:07:28;;;;;;;8.88;5.57;;;7.90;99.90;;;;;;5022809;28;20483;-90
2023/11/18 12:09:58;;;;;;;8.43;6.30;;;7.90;99.90;;;;;;5040059;28;20017;-91
2023/11/18 12:12:28;;;;;;;10.57;7.35;;;7.90;99.90;;;;;;5040753;28;20067;-90
2023/11/18 12:15:11;;;;;;;12.10;9.40;;;8.00;99.90;;;;;;5021509;28;20028;-92
2023/11/18 12:17:58;;;;;;;9.13;7.35;;;8.00;99.90;;;;;;5003836;28;20112;-92
2023/11/18 12:20:42;;;;;;;14.05;8.13;;;8.00;99.90;;;;;;5012346;28;20073;-92
2023/11/18 12:23:14;;;;;;;10.68;9.52;;;8.00;99.90;;;;;;5020729;28;20113;-91
2023/11/18 12:25:45;;;;;;;7.88;6.07;;;8.00;99.90;;;;;;5040412;28;20093;-91
2023/11/18 12:28:14;;;;;;;9.38;5.80;;;8.00;99.90;;;;;;5022341;28;20022;-89
2023/11/18 12:30:51;;;;;;;8.90;7.45;;;8.00;99.90;;;;;;5039851;28;20475;-91
2023/11/18 12:33:23;;;;;;;9.80;8.07;;;8.00;99.90;;;;;;5021935;28;20032;-91
2023/11/18 12:35:48;;;;;;;10.45;6.28;;;8.00;99.90;;;;;;5040037;28;20048;-93
2023/11/18 12:38:24;;;;;;;15.00;8.40;;;7.90;99.90;;;;;;5039606;28;20029;-90
2023/11/18 12:41:06;;;;;;;11.00;7.15;;;7.80;99.90;;;;;;5020803;28;20021;-91
2023/11/18 12:43:51;;;;;;;11.55;6.88;;;8.00;99.90;;;;;;5040727;28;20029;-91
2023/11/18 12:46:49;;;;;;;19.35;14.68;;;8.00;99.90;;;;;;5023129;28;20032;-90
2023/11/18 12:49:25;;;;;;;21.88;14.38;;;8.00;99.90;;;;;;5023377;28;20075;-91
2023/11/18 12:52:00;;;;;;;21.23;11.30;;;8.10;99.90;;;;;;5008057;28;20215;-92
2023/11/18 12:54:30;;;;;;;11.55;7.45;;;8.10;99.90;;;;;;5043157;28;20546;-91
2023/11/18 12:56:56;;;;;;;10.18;7.15;;;8.00;99.90;;;;;;5041692;28;20025;-92